Time;durP1;ratioP1;P1;durP2;ratioP2;P2;SDS_P1;SDS_P2;PMS_P1;PMS_P2;Temp;Humidity;BMP_temperature;BMP_pressure;BME280_temperature;BME280_humidity;BME280_pressure;Samples;Min_cycle;Max_cycle;Signal;HPM_P1;HPM_P2
2023/12/23 00:00:31;;;;;;;0.00;0.00;;;8.40;99.90;;;;;;4971714;28;20230;-63
2023/12/23 00:03:00;;;;;;;0.00;0.00;;;8.30;99.90;;;;;;4970136;28;20260;-63
2023/12/23 00:05:28;;;;;;;0.00;0.00;;;8.40;99.90;;;;;;4967851;28;20278;-64
2023/12/23 00:07:55;;;;;;;0.00;0.00;;;8.30;99.90;;;;;;4971574;28;20622;-64
2023/12/23 00:10:22;;;;;;;0.00;0.00;;;8.40;99.90;;;;;;4966819;28;20296;-63
2023/12/23 00:12:49;;;;;;;0.00;0.00;;;8.40;99.90;;;;;;4971830;28;20837;-63
2023/12/23 00:15:16;;;;;;;0.00;0.00;;;8.40;99.90;;;;;;4967916;28;20227;-62
2023/12/23 00:17:43;;;;;;;0.00;0.00;;;8.50;99.90;;;;;;4974262;28;20217;-63
2023/12/23 00:20:11;;;;;;;0.00;0.00;;;8.40;99.90;;;;;;4976097;28;20226;-63
2023/12/23 00:22:39;;;;;;;0.20;0.00;;;8.40;99.90;;;;;;4972627;28;20293;-63
2023/12/23 00:25:07;;;;;;;0.00;0.00;;;8.50;99.90;;;;;;4977499;28;20197;-63
2023/12/23 00:27:34;;;;;;;0.00;0.00;;;8.50;99.90;;;;;;4969322;28;20210;-64
2023/12/23 00:30:02;;;;;;;0.00;0.00;;;8.50;99.90;;;;;;4969168;28;20242;-64
2023/12/23 00:32:28;;;;;;;0.00;0.00;;;8.50;99.90;;;;;;4971052;28;20329;-63
2023/12/23 00:34:55;;;;;;;0.00;0.00;;;8.50;99.90;;;;;;4982692;28;20233;-64
2023/12/23 00:37:22;;;;;;;0.00;0.00;;;8.50;99.90;;;;;;4983340;28;20200;-64
2023/12/23 00:39:51;;;;;;;0.00;0.00;;;8.50;99.90;;;;;;4971075;28;20226;-64
2023/12/23 00:42:18;;;;;;;0.00;0.00;;;8.50;99.90;;;;;;4971956;28;20258;-64
2023/12/23 00:44:45;;;;;;;0.00;0.00;;;8.50;99.90;;;;;;4976113;28;20650;-63
2023/12/23 00:47:12;;;;;;;0.00;0.00;;;8.60;99.90;;;;;;4980136;28;20209;-64
2023/12/23 00:49:39;;;;;;;0.00;0.00;;;8.60;99.90;;;;;;4972227;28;20639;-63
2023/12/23 00:52:06;;;;;;;0.00;0.00;;;8.50;99.90;;;;;;4981778;28;20209;-64
2023/12/23 00:54:33;;;;;;;0.00;0.00;;;8.50;99.90;;;;;;4973063;28;20210;-64
2023/12/23 00:57:01;;;;;;;0.00;0.00;;;8.50;99.90;;;;;;4970794;28;20227;-64
2023/12/23 00:59:28;;;;;;;0.00;0.00;;;8.60;99.90;;;;;;4968524;28;20226;-63
2023/12/23 01:01:55;;;;;;;0.00;0.00;;;8.60;99.90;;;;;;4980724;28;20207;-64
2023/12/23 01:04:22;;;;;;;0.67;0.00;;;8.60;99.90;;;;;;4991373;28;20198;-64
2023/12/23 01:06:50;;;;;;;0.00;0.00;;;8.60;99.90;;;;;;4990703;28;20257;-64
2023/12/23 01:09:17;;;;;;;0.00;0.00;;;8.60;99.90;;;;;;4979517;28;20229;-64
2023/12/23 01:11:44;;;;;;;0.90;0.00;;;8.60;99.90;;;;;;4989889;28;20202;-63
2023/12/23 01:14:12;;;;;;;0.00;0.00;;;8.60;99.90;;;;;;4991998;28;20205;-64
2023/12/23 01:16:39;;;;;;;0.00;0.00;;;8.60;99.90;;;;;;4991334;28;20717;-64
2023/12/23 01:19:06;;;;;;;0.00;0.00;;;8.70;99.90;;;;;;4980804;28;20293;-62
2023/12/23 01:21:33;;;;;;;0.00;0.00;;;8.60;99.90;;;;;;4988208;28;20260;-63
2023/12/23 01:24:00;;;;;;;0.03;0.03;;;8.60;99.90;;;;;;4991954;28;20217;-63
2023/12/23 01:26:27;;;;;;;0.00;0.00;;;8.50;99.90;;;;;;4991892;28;20752;-64
2023/12/23 01:29:00;;;;;;;0.00;0.00;;;8.50;99.90;;;;;;4985513;28;20656;-62
2023/12/23 01:31:28;;;;;;;0.00;0.00;;;8.50;99.90;;;;;;4976014;28;20209;-63
2023/12/23 01:33:55;;;;;;;0.00;0.00;;;8.50;99.90;;;;;;4991002;28;20260;-64
2023/12/23 01:36:22;;;;;;;0.00;0.00;;;8.50;99.90;;;;;;4991759;28;20272;-63
2023/12/23 01:38:49;;;;;;;0.00;0.00;;;8.40;99.90;;;;;;4991282;28;20233;-64
2023/12/23 01:41:16;;;;;;;0.00;0.00;;;8.50;99.90;;;;;;4990102;28;20214;-64
2023/12/23 01:43:43;;;;;;;0.00;0.00;;;8.50;99.90;;;;;;4986353;28;20213;-63
2023/12/23 01:46:11;;;;;;;0.60;0.00;;;8.50;99.90;;;;;;4972473;28;20234;-64
2023/12/23 01:48:42;;;;;;;1.30;0.00;;;8.40;99.90;;;;;;4971997;28;20269;-63
2023/12/23 01:51:11;;;;;;;0.00;0.00;;;8.40;99.90;;;;;;4972256;28;20690;-61
2023/12/23 01:53:38;;;;;;;0.10;0.00;;;8.50;99.90;;;;;;4972139;28;20263;-62
2023/12/23 01:56:05;;;;;;;0.00;0.00;;;8.50;99.90;;;;;;4978245;28;20222;-62
2023/12/23 01:58:33;;;;;;;0.07;0.00;;;8.50;99.90;;;;;;4986549;28;20197;-61
2023/12/23 02:01:00;;;;;;;0.00;0.00;;;8.40;99.90;;;;;;4953011;29;20568;-62
2023/12/23 02:03:28;;;;;;;0.00;0.00;;;8.40;99.90;;;;;;4953030;29;20211;-62
2023/12/23 02:05:56;;;;;;;0.00;0.00;;;8.30;99.90;;;;;;4955713;28;20661;-60
2023/12/23 02:08:23;;;;;;;0.00;0.00;;;8.40;99.90;;;;;;4976707;28;20678;-62
2023/12/23 02:11:00;;;;;;;0.00;0.00;;;8.40;99.90;;;;;;4987292;28;20678;-62
2023/12/23 02:13:31;;;;;;;0.00;0.00;;;8.40;99.90;;;;;;4995484;28;20617;-61
2023/12/23 02:16:00;;;;;;;0.00;0.00;;;8.40;99.90;;;;;;4994516;28;20755;-64
2023/12/23 02:18:27;;;;;;;0.00;0.00;;;8.50;99.90;;;;;;4994904;28;20209;-64
2023/12/23 02:20:55;;;;;;;0.00;0.00;;;8.50;99.90;;;;;;4985843;28;20286;-64
2023/12/23 02:23:23;;;;;;;0.00;0.00;;;8.40;99.90;;;;;;4989845;28;20249;-64
2023/12/23 02:25:57;;;;;;;0.00;0.00;;;8.40;99.90;;;;;;4995347;28;20201;-63
2023/12/23 02:28:24;;;;;;;0.00;0.00;;;8.40;99.90;;;;;;4985150;28;20284;-63
2023/12/23 02:30:53;;;;;;;0.00;0.00;;;8.40;99.90;;;;;;5068313;22;20234;-63
2023/12/23 02:33:20;;;;;;;0.00;0.00;;;8.40;99.90;;;;;;5048460;28;20204;-63
2023/12/23 02:35:52;;;;;;;0.00;0.00;;;8.50;99.90;;;;;;5046970;28;20220;-59
2023/12/23 02:38:21;;;;;;;0.10;0.00;;;8.40;99.90;;;;;;5048556;28;20202;-61
2023/12/23 02:40:48;;;;;;;0.00;0.00;;;8.30;99.90;;;;;;5046849;28;20249;-60
2023/12/23 02:43:15;;;;;;;0.00;0.00;;;8.30;99.90;;;;;;5054361;28;20199;-61
2023/12/23 02:45:42;;;;;;;0.00;0.00;;;8.40;99.90;;;;;;5047407;28;20196;-60
2023/12/23 02:48:09;;;;;;;0.40;0.00;;;8.30;99.90;;;;;;5047589;28;20636;-60
2023/12/23 02:50:36;;;;;;;0.00;0.00;;;8.30;99.90;;;;;;5055044;28;20273;-61
2023/12/23 02:53:03;;;;;;;0.00;0.00;;;8.30;99.90;;;;;;5055022;28;20200;-61
2023/12/23 02:55:33;;;;;;;0.00;0.00;;;8.30;99.90;;;;;;5054666;28;20258;-61
2023/12/23 02:58:01;;;;;;;0.00;0.00;;;8.30;99.90;;;;;;5044021;28;20625;-60
2023/12/23 03:00:28;;;;;;;0.00;0.00;;;8.20;99.90;;;;;;5047380;28;20228;-60
2023/12/23 03:02:56;;;;;;;0.00;0.00;;;8.30;99.90;;;;;;5054721;28;20205;-60
2023/12/23 03:05:23;;;;;;;0.00;0.00;;;8.20;99.90;;;;;;5054997;28;20211;-60
2023/12/23 03:07:50;;;;;;;1.40;0.00;;;8.20;99.90;;;;;;5054627;28;20200;-60
2023/12/23 03:10:17;;;;;;;0.00;0.00;;;8.30;99.90;;;;;;5043632;28;20220;-60
2023/12/23 03:12:46;;;;;;;0.00;0.00;;;8.40;99.90;;;;;;5042544;28;20197;-61
2023/12/23 03:15:13;;;;;;;0.00;0.00;;;8.30;99.90;;;;;;5034882;28;20202;-61
2023/12/23 03:17:40;;;;;;;0.10;0.10;;;8.20;99.90;;;;;;5033767;28;20222;-61
2023/12/23 03:20:08;;;;;;;0.40;0.00;;;8.20;99.90;;;;;;5033942;28;20274;-61
2023/12/23 03:22:35;;;;;;;0.00;0.00;;;8.10;99.90;;;;;;5041362;28;20281;-60
2023/12/23 03:25:03;;;;;;;0.50;0.00;;;8.20;99.90;;;;;;5045217;28;20207;-60
2023/12/23 03:27:30;;;;;;;0.00;0.00;;;8.20;99.90;;;;;;5054328;28;20251;-61
2023/12/23 03:29:58;;;;;;;0.00;0.00;;;8.20;99.90;;;;;;5053752;28;20285;-61
2023/12/23 03:32:25;;;;;;;0.00;0.00;;;8.20;99.90;;;;;;5054425;28;20202;-60
2023/12/23 03:34:52;;;;;;;0.10;0.10;;;8.10;99.90;;;;;;5049136;28;20249;-61
2023/12/23 03:37:19;;;;;;;0.00;0.00;;;8.10;99.90;;;;;;5045535;28;20639;-60
2023/12/23 03:39:46;;;;;;;0.00;0.00;;;8.10;99.90;;;;;;5053640;28;20231;-61
2023/12/23 03:42:13;;;;;;;0.00;0.00;;;8.20;99.90;;;;;;5045080;28;20203;-60
2023/12/23 03:44:40;;;;;;;0.00;0.00;;;8.50;99.90;;;;;;5037985;28;20206;-61
2023/12/23 03:47:09;;;;;;;0.57;0.00;;;8.20;99.90;;;;;;5038967;28;20195;-61
2023/12/23 03:49:36;;;;;;;0.00;0.00;;;8.20;99.90;;;;;;5048746;28;20227;-61
2023/12/23 03:52:03;;;;;;;0.00;0.00;;;8.20;99.90;;;;;;5034150;28;20261;-60
2023/12/23 03:54:30;;;;;;;0.00;0.00;;;8.30;99.90;;;;;;5033116;28;20622;-61
2023/12/23 03:56:59;;;;;;;0.00;0.00;;;8.30;99.90;;;;;;5048166;28;20224;-60
2023/12/23 03:59:26;;;;;;;0.00;0.00;;;8.40;99.90;;;;;;5048029;28;20217;-61
2023/12/23 04:01:55;;;;;;;0.20;0.00;;;8.30;99.90;;;;;;5052898;28;20211;-60
2023/12/23 04:04:24;;;;;;;0.07;0.00;;;8.30;99.90;;;;;;5053621;28;20287;-61
2023/12/23 04:06:54;;;;;;;0.00;0.00;;;8.30;99.90;;;;;;5058438;28;20202;-61
2023/12/23 04:09:22;;;;;;;0.00;0.00;;;8.30;99.90;;;;;;5045463;28;20580;-61
2023/12/23 04:11:52;;;;;;;0.00;0.00;;;8.20;99.90;;;;;;5045164;28;20199;-60
2023/12/23 04:14:19;;;;;;;0.00;0.00;;;8.20;99.90;;;;;;5053631;28;20214;-60
2023/12/23 04:16:47;;;;;;;0.47;0.00;;;8.20;99.90;;;;;;5052594;28;20273;-61
2023/12/23 04:19:14;;;;;;;0.00;0.00;;;8.10;99.90;;;;;;5052819;28;20251;-60
2023/12/23 04:21:42;;;;;;;0.00;0.00;;;8.10;99.90;;;;;;5046273;28;20200;-61
2023/12/23 04:24:09;;;;;;;0.00;0.00;;;8.10;99.90;;;;;;5045534;28;20199;-60
2023/12/23 04:26:36;;;;;;;0.00;0.00;;;8.00;99.90;;;;;;5053490;28;20208;-61
2023/12/23 04:29:03;;;;;;;0.00;0.00;;;8.00;99.90;;;;;;5051650;28;20222;-61
2023/12/23 04:31:30;;;;;;;0.10;0.10;;;8.00;99.90;;;;;;5053016;28;20676;-61
2023/12/23 04:33:57;;;;;;;0.93;0.00;;;8.00;99.90;;;;;;5036003;28;20669;-61
2023/12/23 04:36:24;;;;;;;0.03;0.00;;;7.90;99.90;;;;;;5044680;28;20776;-61
2023/12/23 04:38:53;;;;;;;0.00;0.00;;;7.90;99.90;;;;;;5051750;28;20290;-61
2023/12/23 04:41:20;;;;;;;0.00;0.00;;;7.80;99.90;;;;;;5052873;28;20737;-60
2023/12/23 04:43:47;;;;;;;0.00;0.00;;;7.80;99.90;;;;;;5039012;28;20270;-61
2023/12/23 04:46:14;;;;;;;0.00;0.00;;;7.80;99.90;;;;;;5046621;28;20203;-60
2023/12/23 04:48:41;;;;;;;0.30;0.00;;;7.80;99.90;;;;;;5043941;28;20263;-61
2023/12/23 04:51:08;;;;;;;0.00;0.00;;;7.80;99.90;;;;;;5052700;28;20200;-61
2023/12/23 04:53:35;;;;;;;0.00;0.00;;;7.80;99.90;;;;;;5043381;28;20204;-61
2023/12/23 04:56:03;;;;;;;0.10;0.10;;;7.80;99.90;;;;;;5044030;28;20200;-61
2023/12/23 04:58:30;;;;;;;0.00;0.00;;;7.80;99.90;;;;;;5036796;28;20204;-61
2023/12/23 05:00:57;;;;;;;0.00;0.00;;;7.80;99.90;;;;;;5042615;28;20271;-61
2023/12/23 05:03:24;;;;;;;0.00;0.00;;;7.80;99.90;;;;;;5037336;28;20200;-61
2023/12/23 05:05:51;;;;;;;0.00;0.00;;;7.80;99.90;;;;;;5032209;28;20205;-61
2023/12/23 05:08:18;;;;;;;0.00;0.00;;;7.90;99.90;;;;;;5034310;28;20203;-61
2023/12/23 05:10:45;;;;;;;0.00;0.00;;;7.90;99.90;;;;;;5043784;28;20218;-61
2023/12/23 05:13:15;;;;;;;0.00;0.00;;;7.90;99.90;;;;;;5027995;28;20205;-61
2023/12/23 05:15:42;;;;;;;0.00;0.00;;;7.90;99.90;;;;;;5032294;28;20826;-61
2023/12/23 05:18:09;;;;;;;0.00;0.00;;;7.90;99.90;;;;;;5031461;28;20216;-61
2023/12/23 05:20:36;;;;;;;0.00;0.00;;;7.90;99.90;;;;;;5026540;28;20221;-61
2023/12/23 05:23:03;;;;;;;0.00;0.00;;;7.90;99.90;;;;;;5031742;28;20254;-60
2023/12/23 05:25:30;;;;;;;0.00;0.00;;;8.00;99.90;;;;;;5037816;28;20667;-61
2023/12/23 05:27:57;;;;;;;0.00;0.00;;;8.00;99.90;;;;;;5032911;28;20259;-61
2023/12/23 05:30:25;;;;;;;0.53;0.00;;;8.10;99.90;;;;;;5031466;28;20232;-61
2023/12/23 05:32:52;;;;;;;0.00;0.00;;;8.50;99.90;;;;;;5031969;28;20203;-61
2023/12/23 05:35:19;;;;;;;0.03;0.00;;;8.20;99.90;;;;;;5032426;28;20212;-61
2023/12/23 05:37:46;;;;;;;0.03;0.00;;;8.20;99.90;;;;;;5029894;28;20708;-60
2023/12/23 05:40:14;;;;;;;0.00;0.00;;;8.20;99.90;;;;;;5028669;28;20225;-61
2023/12/23 05:42:41;;;;;;;0.00;0.00;;;8.20;99.90;;;;;;5028270;28;20258;-61
2023/12/23 05:45:09;;;;;;;0.00;0.00;;;8.20;99.90;;;;;;5033535;28;20224;-61
2023/12/23 05:47:37;;;;;;;1.00;0.00;;;8.10;99.90;;;;;;5031801;28;20584;-61
2023/12/23 05:50:05;;;;;;;0.00;0.00;;;8.20;99.90;;;;;;5031325;28;20279;-61
2023/12/23 05:52:32;;;;;;;0.00;0.00;;;8.20;99.90;;;;;;5032031;28;20591;-61
2023/12/23 05:54:59;;;;;;;0.00;0.00;;;8.10;99.90;;;;;;5031535;28;20552;-61
2023/12/23 05:57:26;;;;;;;0.13;0.00;;;8.20;99.90;;;;;;5030237;28;20216;-60
2023/12/23 05:59:53;;;;;;;0.00;0.00;;;8.30;99.90;;;;;;5033104;28;20278;-60
2023/12/23 06:02:20;;;;;;;0.00;0.00;;;8.30;99.90;;;;;;5030925;28;20659;-61
2023/12/23 06:04:48;;;;;;;0.00;0.00;;;8.40;99.90;;;;;;5031466;28;20623;-59
2023/12/23 06:07:15;;;;;;;0.00;0.00;;;8.40;99.90;;;;;;5031318;28;20653;-61
2023/12/23 06:09:42;;;;;;;0.00;0.00;;;8.50;99.90;;;;;;5026058;28;20640;-61
2023/12/23 06:12:09;;;;;;;0.00;0.00;;;8.50;99.90;;;;;;5022579;28;20209;-60
2023/12/23 06:14:36;;;;;;;0.00;0.00;;;8.50;99.90;;;;;;5023659;28;20092;-68
2023/12/23 06:17:04;;;;;;;0.00;0.00;;;8.50;99.90;;;;;;5019080;28;20714;-69
2023/12/23 06:19:32;;;;;;;0.00;0.00;;;8.60;99.90;;;;;;5023167;28;20235;-70
2023/12/23 06:22:04;;;;;;;0.00;0.00;;;8.50;99.90;;;;;;5030915;28;20205;-68
2023/12/23 06:24:31;;;;;;;0.00;0.00;;;8.50;99.90;;;;;;5029495;28;20212;-68
2023/12/23 06:26:58;;;;;;;0.00;0.00;;;8.60;99.90;;;;;;5026672;28;20469;-66
2023/12/23 06:29:25;;;;;;;0.00;0.00;;;8.50;99.90;;;;;;5029911;28;20290;-66
2023/12/23 06:31:56;;;;;;;0.77;0.00;;;8.60;99.90;;;;;;5028330;28;20206;-67
2023/12/23 06:34:23;;;;;;;0.00;0.00;;;8.50;99.90;;;;;;5030944;28;20656;-68
2023/12/23 06:36:50;;;;;;;0.10;0.00;;;8.60;99.90;;;;;;5030467;28;20224;-67
2023/12/23 06:39:19;;;;;;;0.00;0.00;;;8.60;99.90;;;;;;5023635;28;20222;-63
2023/12/23 06:41:46;;;;;;;0.33;0.00;;;8.60;99.90;;;;;;5030428;28;20205;-70
2023/12/23 06:44:13;;;;;;;0.00;0.00;;;8.50;99.90;;;;;;5029893;28;20202;-70
2023/12/23 06:46:43;;;;;;;1.27;0.00;;;8.50;99.90;;;;;;5030881;28;20205;-71
2023/12/23 06:49:14;;;;;;;0.67;0.00;;;8.50;99.90;;;;;;5024462;28;20251;-63
2023/12/23 06:51:45;;;;;;;0.00;0.00;;;8.50;99.90;;;;;;5025143;28;20212;-65
2023/12/23 06:54:12;;;;;;;0.00;0.00;;;8.50;99.90;;;;;;5025654;28;20205;-69
2023/12/23 06:56:40;;;;;;;0.00;0.00;;;8.50;99.90;;;;;;5032351;28;20778;-64
2023/12/23 06:59:09;;;;;;;0.00;0.00;;;8.50;99.90;;;;;;5031093;28;20279;-65
2023/12/23 07:01:38;;;;;;;0.00;0.00;;;8.50;99.90;;;;;;5032796;28;20198;-65
2023/12/23 07:04:08;;;;;;;0.23;0.10;;;8.50;99.90;;;;;;5033758;28;20204;-67
2023/12/23 07:06:35;;;;;;;0.00;0.00;;;8.60;99.90;;;;;;5034358;28;20266;-70
2023/12/23 07:09:04;;;;;;;0.00;0.00;;;8.60;99.90;;;;;;5034679;28;20929;-69
2023/12/23 07:11:31;;;;;;;0.00;0.00;;;8.70;99.90;;;;;;5033951;28;20203;-68
2023/12/23 07:14:00;;;;;;;0.00;0.00;;;8.70;99.90;;;;;;5033717;28;20626;-68
2023/12/23 07:16:26;;;;;;;0.10;0.10;;;8.70;99.90;;;;;;5033920;28;20232;-67
2023/12/23 07:18:53;;;;;;;0.00;0.00;;;8.70;99.90;;;;;;5033061;28;20699;-68
2023/12/23 07:21:20;;;;;;;0.00;0.00;;;8.70;99.90;;;;;;5033313;28;20203;-69
2023/12/23 07:23:47;;;;;;;0.00;0.00;;;8.70;99.90;;;;;;5031038;28;20204;-67
2023/12/23 07:26:15;;;;;;;0.00;0.00;;;8.70;99.90;;;;;;5030982;28;20204;-66
2023/12/23 07:28:42;;;;;;;0.00;0.00;;;8.70;99.90;;;;;;5024182;28;20277;-68
2023/12/23 07:31:12;;;;;;;0.00;0.00;;;8.60;99.90;;;;;;5017983;28;20305;-67
2023/12/23 07:33:39;;;;;;;0.10;0.00;;;8.70;99.90;;;;;;5030826;28;20204;-66
2023/12/23 07:36:06;;;;;;;0.00;0.00;;;8.70;99.90;;;;;;5025745;28;20196;-70
2023/12/23 07:38:34;;;;;;;0.00;0.00;;;8.80;99.90;;;;;;5029243;28;20270;-67
2023/12/23 07:41:00;;;;;;;0.00;0.00;;;8.80;99.90;;;;;;5021326;28;20730;-68
2023/12/23 07:43:27;;;;;;;1.00;0.00;;;8.80;99.90;;;;;;5020560;28;20265;-68
2023/12/23 07:45:54;;;;;;;0.00;0.00;;;8.80;99.90;;;;;;5025662;28;20645;-66
2023/12/23 07:48:23;;;;;;;0.67;0.00;;;8.80;99.90;;;;;;5018919;28;20341;-65
2023/12/23 07:50:50;;;;;;;0.13;0.00;;;8.90;99.90;;;;;;5020203;28;20240;-66
2023/12/23 07:53:17;;;;;;;0.00;0.00;;;8.80;99.90;;;;;;5021673;28;20746;-67
2023/12/23 07:55:43;;;;;;;0.00;0.00;;;8.80;99.90;;;;;;5026439;28;20196;-64
2023/12/23 07:58:10;;;;;;;0.00;0.00;;;8.80;99.90;;;;;;5022333;28;20785;-67
2023/12/23 08:00:37;;;;;;;0.00;0.00;;;8.80;99.90;;;;;;5021072;28;20228;-66
2023/12/23 08:03:05;;;;;;;0.83;0.00;;;8.70;99.90;;;;;;5019005;28;20274;-68
2023/12/23 08:05:34;;;;;;;0.10;0.10;;;8.80;99.90;;;;;;5022453;28;20727;-67
2023/12/23 08:08:04;;;;;;;0.00;0.00;;;8.80;99.90;;;;;;5020956;28;20197;-67
2023/12/23 08:10:31;;;;;;;0.00;0.00;;;8.80;99.90;;;;;;5023090;28;20339;-67
2023/12/23 08:12:58;;;;;;;0.00;0.00;;;8.70;99.90;;;;;;5020608;28;20320;-71
2023/12/23 08:15:25;;;;;;;0.00;0.00;;;8.80;99.90;;;;;;5027289;28;20212;-66
2023/12/23 08:17:52;;;;;;;0.00;0.00;;;8.70;99.90;;;;;;5019961;28;20283;-64
2023/12/23 08:20:19;;;;;;;0.20;0.10;;;8.80;99.90;;;;;;5020371;28;20222;-64
2023/12/23 08:22:49;;;;;;;0.00;0.00;;;8.80;99.90;;;;;;5023257;28;20230;-65
2023/12/23 08:25:16;;;;;;;0.00;0.00;;;8.80;99.90;;;;;;5022720;28;20201;-64
2023/12/23 08:27:43;;;;;;;0.00;0.00;;;8.80;99.90;;;;;;5026545;28;20196;-66
2023/12/23 08:30:11;;;;;;;0.00;0.00;;;9.30;99.90;;;;;;5022751;28;21127;-67
2023/12/23 08:32:38;;;;;;;0.00;0.00;;;8.70;99.90;;;;;;5026671;28;20204;-65
2023/12/23 08:35:06;;;;;;;0.00;0.00;;;8.70;99.90;;;;;;5021502;28;20205;-70
2023/12/23 08:37:33;;;;;;;0.53;0.00;;;8.70;99.90;;;;;;5026574;28;20433;-65
2023/12/23 08:40:02;;;;;;;0.00;0.00;;;8.80;99.90;;;;;;5018906;28;20226;-66
2023/12/23 08:42:29;;;;;;;0.23;0.00;;;8.80;99.90;;;;;;5022256;28;20208;-67
2023/12/23 08:44:56;;;;;;;0.00;0.00;;;8.90;99.90;;;;;;5020480;28;20202;-66
2023/12/23 08:47:23;;;;;;;0.00;0.00;;;;;;;;;;5026395;28;20274;-67
2023/12/23 08:49:50;;;;;;;0.00;0.00;;;8.90;99.90;;;;;;5026452;28;20860;-67
2023/12/23 08:52:18;;;;;;;0.00;0.00;;;8.80;99.90;;;;;;5027140;28;20205;-63
2023/12/23 08:54:46;;;;;;;0.10;0.10;;;8.90;99.90;;;;;;5020047;28;20204;-63
2023/12/23 08:57:15;;;;;;;0.00;0.00;;;8.90;99.90;;;;;;5015082;28;20202;-69
2023/12/23 08:59:43;;;;;;;0.10;0.10;;;9.00;99.90;;;;;;5022554;28;20715;-64
2023/12/23 09:02:10;;;;;;;2.10;0.00;;;9.00;99.90;;;;;;5020656;28;21803;-66
2023/12/23 09:04:37;;;;;;;0.00;0.00;;;9.00;99.90;;;;;;5020498;28;22426;-64
2023/12/23 09:07:06;;;;;;;0.20;0.10;;;8.90;99.90;;;;;;5020994;28;20274;-65
2023/12/23 09:09:33;;;;;;;0.00;0.00;;;8.90;99.90;;;;;;5020645;28;20219;-68
2023/12/23 09:12:00;;;;;;;0.60;0.10;;;9.00;99.90;;;;;;5024230;28;20209;-64
2023/12/23 09:14:29;;;;;;;0.23;0.10;;;9.00;99.90;;;;;;5021387;28;20258;-64
2023/12/23 09:16:56;;;;;;;0.47;0.00;;;9.00;99.90;;;;;;5019692;28;20695;-66
2023/12/23 09:19:23;;;;;;;0.00;0.00;;;9.10;99.90;;;;;;5019925;28;20224;-66
2023/12/23 09:21:55;;;;;;;0.00;0.00;;;9.10;99.90;;;;;;5027878;28;20260;-65
2023/12/23 09:24:22;;;;;;;0.20;0.00;;;9.10;99.90;;;;;;5020605;28;20800;-65
2023/12/23 09:26:49;;;;;;;0.00;0.00;;;9.00;99.90;;;;;;5016708;28;20208;-64
2023/12/23 09:29:16;;;;;;;0.00;0.00;;;9.10;99.90;;;;;;5026813;28;20220;-64
2023/12/23 09:31:45;;;;;;;0.00;0.00;;;9.10;99.90;;;;;;5028664;28;20221;-66
2023/12/23 09:34:12;;;;;;;0.50;0.00;;;9.10;99.90;;;;;;5019122;28;20200;-66
2023/12/23 09:36:39;;;;;;;0.30;0.00;;;9.20;99.90;;;;;;5027724;28;20208;-66
2023/12/23 09:39:06;;;;;;;0.10;0.00;;;9.20;99.90;;;;;;5028244;28;20286;-66
2023/12/23 09:41:33;;;;;;;0.40;0.00;;;9.20;99.90;;;;;;5029751;28;20262;-65
2023/12/23 09:44:00;;;;;;;0.00;0.00;;;9.30;99.90;;;;;;5027822;28;20235;-66
2023/12/23 09:46:28;;;;;;;0.07;0.03;;;9.30;99.90;;;;;;5030372;28;20214;-65
2023/12/23 09:48:56;;;;;;;0.37;0.20;;;9.40;99.90;;;;;;5020699;28;20270;-65
2023/12/23 09:51:27;;;;;;;0.30;0.00;;;9.30;99.90;;;;;;5024852;28;20201;-65
2023/12/23 09:53:58;;;;;;;0.00;0.00;;;9.40;99.90;;;;;;5029030;28;20228;-66
2023/12/23 09:56:27;;;;;;;0.00;0.00;;;9.30;99.90;;;;;;5028111;28;20688;-66
2023/12/23 09:58:54;;;;;;;0.00;0.00;;;9.30;99.90;;;;;;5029154;28;20214;-64
2023/12/23 10:01:21;;;;;;;0.00;0.00;;;9.30;99.90;;;;;;5031196;28;20254;-65
2023/12/23 10:03:48;;;;;;;0.10;0.00;;;9.30;99.90;;;;;;5029669;28;20201;-69
2023/12/23 10:06:18;;;;;;;1.13;0.00;;;9.30;99.90;;;;;;5028741;28;20204;-70
2023/12/23 10:08:46;;;;;;;0.40;0.10;;;9.40;99.90;;;;;;5029668;28;20204;-69
2023/12/23 10:11:13;;;;;;;0.37;0.10;;;9.20;99.90;;;;;;5030736;28;20733;-68
2023/12/23 10:13:40;;;;;;;0.00;0.00;;;9.40;99.90;;;;;;5028694;28;20208;-66
2023/12/23 10:16:08;;;;;;;0.00;0.00;;;9.40;99.90;;;;;;5028750;28;20763;-60
2023/12/23 10:18:35;;;;;;;0.00;0.00;;;9.40;99.90;;;;;;5026920;28;20286;-66
2023/12/23 10:21:02;;;;;;;0.10;0.07;;;9.40;99.90;;;;;;5028201;28;20256;-65
2023/12/23 10:23:31;;;;;;;0.00;0.00;;;9.40;99.90;;;;;;5027304;28;20212;-65
2023/12/23 10:25:58;;;;;;;0.00;0.00;;;9.40;99.90;;;;;;5020013;28;20209;-66
2023/12/23 10:28:26;;;;;;;0.00;0.00;;;9.40;99.90;;;;;;5030903;28;20198;-66
2023/12/23 10:30:56;;;;;;;0.10;0.10;;;9.50;99.90;;;;;;5035027;28;20762;-68
2023/12/23 10:33:26;;;;;;;0.30;0.30;;;9.50;99.90;;;;;;5046476;28;20238;-64
2023/12/23 10:35:59;;;;;;;0.17;0.17;;;9.40;99.90;;;;;;5044043;28;20346;-69
2023/12/23 10:38:27;;;;;;;0.13;0.07;;;9.60;99.90;;;;;;5027224;28;20219;-67
2023/12/23 10:41:06;;;;;;;0.00;0.00;;;9.50;99.90;;;;;;5033142;28;20217;-70
2023/12/23 10:43:36;;;;;;;0.30;0.30;;;9.50;99.90;;;;;;5041755;28;20583;-69
2023/12/23 10:46:04;;;;;;;0.40;0.20;;;9.40;99.90;;;;;;5044665;28;20257;-64
2023/12/23 10:48:33;;;;;;;0.10;0.10;;;9.30;99.90;;;;;;5031127;28;20290;-62
2023/12/23 10:51:02;;;;;;;0.10;0.00;;;9.40;99.90;;;;;;5041194;28;20246;-63
2023/12/23 10:53:31;;;;;;;0.60;0.50;;;9.40;99.90;;;;;;5033572;28;20204;-66
2023/12/23 10:55:59;;;;;;;1.97;1.60;;;9.50;99.90;;;;;;5042351;28;20201;-65
2023/12/23 10:58:27;;;;;;;0.60;0.33;;;9.30;99.90;;;;;;5032236;28;20220;-69
2023/12/23 11:00:55;;;;;;;1.67;0.80;;;9.40;99.90;;;;;;5046071;28;20226;-69
2023/12/23 11:03:23;;;;;;;1.27;0.90;;;;;;;;;;5046151;28;20680;-70
2023/12/23 11:05:51;;;;;;;0.40;0.40;;;;;;;;;;5045398;28;20256;-71
2023/12/23 11:08:22;;;;;;;0.77;0.40;;;9.50;99.90;;;;;;5031476;28;20196;-69
2023/12/23 11:10:51;;;;;;;0.10;0.10;;;9.60;99.90;;;;;;5031461;28;20743;-70
2023/12/23 11:13:20;;;;;;;0.07;0.07;;;9.60;99.90;;;;;;5035509;28;20196;-69
2023/12/23 11:15:48;;;;;;;0.10;0.10;;;9.60;99.90;;;;;;5040666;28;20331;-68
2023/12/23 11:18:15;;;;;;;0.10;0.10;;;9.60;99.90;;;;;;5030793;28;20555;-67
2023/12/23 11:20:48;;;;;;;0.10;0.10;;;9.60;99.90;;;;;;5033855;28;20737;-70
2023/12/23 11:23:35;;;;;;;0.30;0.00;;;9.70;99.90;;;;;;5041238;28;20248;-70
2023/12/23 11:26:03;;;;;;;0.20;0.20;;;9.90;99.90;;;;;;5030475;28;20220;-71
2023/12/23 11:28:33;;;;;;;0.10;0.10;;;10.00;99.90;;;;;;5021279;28;20259;-65
2023/12/23 11:31:01;;;;;;;0.10;0.00;;;10.10;99.90;;;;;;5021232;28;20720;-64
2023/12/23 11:33:31;;;;;;;0.00;0.00;;;10.10;99.90;;;;;;5024464;28;20210;-66
2023/12/23 11:35:59;;;;;;;0.00;0.00;;;10.10;99.90;;;;;;5025630;28;20201;-64
2023/12/23 11:38:28;;;;;;;0.07;0.00;;;10.20;99.90;;;;;;5023517;28;20316;-65
2023/12/23 11:40:56;;;;;;;0.00;0.00;;;10.20;99.90;;;;;;5027797;28;20294;-65
2023/12/23 11:43:24;;;;;;;0.00;0.00;;;10.20;99.90;;;;;;5027622;28;20926;-65
2023/12/23 11:45:53;;;;;;;0.07;0.07;;;;;;;;;;5028351;28;20263;-65
2023/12/23 11:48:21;;;;;;;0.60;0.10;;;10.30;99.90;;;;;;5028044;28;20202;-64
2023/12/23 11:50:49;;;;;;;0.57;0.07;;;10.30;99.90;;;;;;5028517;28;20228;-64
2023/12/23 11:53:15;;;;;;;0.10;0.10;;;10.20;99.90;;;;;;5025114;28;20225;-68
2023/12/23 11:55:43;;;;;;;0.00;0.00;;;10.10;99.90;;;;;;5026696;28;20323;-64
2023/12/23 11:58:10;;;;;;;0.00;0.00;;;10.10;99.90;;;;;;5021887;28;20208;-67
2023/12/23 12:00:40;;;;;;;0.00;0.00;;;10.10;99.90;;;;;;5020981;28;20229;-64
2023/12/23 12:03:10;;;;;;;0.47;0.30;;;10.10;99.90;;;;;;5022904;28;20260;-64
2023/12/23 12:05:37;;;;;;;1.33;0.10;;;10.10;99.90;;;;;;5022152;28;20562;-63
2023/12/23 12:08:04;;;;;;;1.60;0.20;;;10.10;99.90;;;;;;5021300;28;20896;-69
2023/12/23 12:10:31;;;;;;;0.40;0.40;;;10.00;99.90;;;;;;5022893;28;20228;-64
2023/12/23 12:12:58;;;;;;;1.00;0.83;;;10.00;99.90;;;;;;5020526;28;20683;-65
2023/12/23 12:15:25;;;;;;;0.20;0.20;;;10.20;99.90;;;;;;5027134;28;20201;-69
2023/12/23 12:17:53;;;;;;;0.30;0.20;;;10.20;99.90;;;;;;5021490;28;20202;-68
2023/12/23 12:20:22;;;;;;;0.30;0.30;;;10.20;99.90;;;;;;5020197;28;20301;-64
2023/12/23 12:22:50;;;;;;;0.50;0.50;;;10.20;99.90;;;;;;5030149;28;20565;-67
2023/12/23 12:25:17;;;;;;;0.20;0.20;;;10.00;99.90;;;;;;5019723;28;20263;-63
2023/12/23 12:27:44;;;;;;;0.40;0.40;;;10.20;99.90;;;;;;5018942;28;20201;-70
2023/12/23 12:30:12;;;;;;;0.20;0.20;;;10.30;99.90;;;;;;5022544;28;20656;-66
2023/12/23 12:32:44;;;;;;;0.17;0.17;;;10.30;99.90;;;;;;5020724;28;20249;-66
2023/12/23 12:35:12;;;;;;;0.53;0.27;;;10.40;99.90;;;;;;5021831;28;20225;-68
2023/12/23 12:37:41;;;;;;;0.20;0.20;;;10.20;99.90;;;;;;5020147;28;20295;-65
2023/12/23 12:40:12;;;;;;;0.13;0.13;;;10.30;99.90;;;;;;5020288;28;20291;-65
2023/12/23 12:42:44;;;;;;;0.20;0.20;;;10.30;99.90;;;;;;5021180;28;20238;-65
2023/12/23 12:45:14;;;;;;;0.10;0.10;;;10.30;99.90;;;;;;5025432;28;20210;-65
2023/12/23 12:47:41;;;;;;;0.10;0.10;;;10.30;99.90;;;;;;5021556;28;20218;-65
2023/12/23 12:50:08;;;;;;;0.20;0.20;;;10.30;99.90;;;;;;5019538;28;20228;-65
2023/12/23 12:52:36;;;;;;;0.20;0.20;;;10.40;99.90;;;;;;5021353;28;20212;-64
2023/12/23 12:55:05;;;;;;;0.10;0.10;;;10.40;99.90;;;;;;5016262;28;20212;-65
2023/12/23 12:57:33;;;;;;;0.60;0.10;;;10.40;99.90;;;;;;5018139;28;20208;-67
2023/12/23 13:00:00;;;;;;;0.10;0.10;;;10.40;99.90;;;;;;5020835;28;20699;-66